Time;durP1;ratioP1;P1;durP2;ratioP2;P2;SDS_P1;SDS_P2;PMS_P1;PMS_P2;Temp;Humidity;BMP_temperature;BMP_pressure;BME280_temperature;BME280_humidity;BME280_pressure;Samples;Min_cycle;Max_cycle;Signal;HPM_P1;HPM_P2
2021/07/12 00:00:54;;;;;;;6.90;4.90;;;18.40;97.30;;;;;;5018495;28;20181;-89
2021/07/12 00:03:24;;;;;;;9.83;5.20;;;18.40;97.30;;;;;;5017946;28;20232;-89
2021/07/12 00:05:54;;;;;;;11.70;4.77;;;18.40;97.30;;;;;;5018559;28;20490;-89
2021/07/12 00:08:19;;;;;;;9.23;5.47;;;18.40;97.30;;;;;;5019185;28;20449;-89
2021/07/12 00:10:45;;;;;;;7.53;4.83;;;18.30;97.30;;;;;;5019515;28;20454;-89
2021/07/12 00:13:13;;;;;;;8.90;4.87;;;18.30;97.30;;;;;;5019515;28;20200;-89
2021/07/12 00:15:44;;;;;;;10.03;4.80;;;18.30;97.30;;;;;;5019401;28;20551;-89
2021/07/12 00:18:17;;;;;;;11.33;4.20;;;18.30;97.30;;;;;;5019447;28;20794;-89
2021/07/12 00:20:44;;;;;;;25.43;4.70;;;18.30;97.30;;;;;;5019445;28;20474;-89
2021/07/12 00:23:15;;;;;;;10.40;5.20;;;18.20;97.30;;;;;;5018934;28;20459;-89
2021/07/12 00:25:47;;;;;;;10.70;5.10;;;18.10;97.30;;;;;;5019615;28;20429;-90
2021/07/12 00:28:13;;;;;;;6.50;4.30;;;18.10;97.30;;;;;;5019588;28;20418;-89
2021/07/12 00:30:45;;;;;;;11.73;4.67;;;18.10;97.30;;;;;;5018768;28;20490;-89
2021/07/12 00:33:16;;;;;;;7.30;4.30;;;18.10;97.30;;;;;;5030036;23;20231;-89
2021/07/12 00:35:47;;;;;;;13.33;5.00;;;18.10;97.30;;;;;;5016330;28;20436;-89
2021/07/12 00:41:17;;;;;;;21.83;4.60;;;18.10;97.30;;;;;;4944597;28;20443;-90
2021/07/12 00:43:45;;;;;;;10.17;4.50;;;18.10;97.30;;;;;;5007536;28;20440;-89
2021/07/12 00:46:14;;;;;;;8.33;4.60;;;18.00;97.30;;;;;;4998696;28;20412;-90
2021/07/12 00:48:45;;;;;;;11.67;5.20;;;18.00;97.30;;;;;;4997780;28;20396;-90
2021/07/12 00:52:17;;;;;;;13.53;4.80;;;18.00;97.30;;;;;;4997524;28;20514;-90
2021/07/12 00:55:06;;;;;;;10.37;4.77;;;18.00;97.30;;;;;;5017844;23;20589;-90
2021/07/12 00:58:06;;;;;;;14.37;5.30;;;17.90;97.30;;;;;;5015077;28;20453;-90
2021/07/12 01:01:29;;;;;;;24.90;4.93;;;17.90;97.30;;;;;;5016000;28;20419;-90
2021/07/12 01:06:24;;;;;;;14.87;4.70;;;17.80;97.30;;;;;;5033269;28;20473;-90
2021/07/12 01:08:49;;;;;;;7.37;4.50;;;17.80;97.30;;;;;;5017272;28;20412;-90
2021/07/12 01:11:14;;;;;;;16.40;4.97;;;17.80;97.30;;;;;;5017211;28;21003;-89
2021/07/12 01:13:57;;;;;;;9.30;4.90;;;17.80;97.30;;;;;;5017185;28;20212;-90
2021/07/12 01:16:44;;;;;;;15.37;4.80;;;17.70;97.30;;;;;;5017113;28;20172;-89
2021/07/12 01:19:50;;;;;;;10.57;5.10;;;17.70;97.30;;;;;;5035654;28;20422;-90
2021/07/12 01:22:47;;;;;;;7.17;4.43;;;17.70;97.30;;;;;;5016454;28;21096;-90
2021/07/12 01:25:48;;;;;;;18.77;5.33;;;17.70;97.30;;;;;;4985173;28;20423;-90
2021/07/12 01:28:49;;;;;;;9.40;5.13;;;17.70;97.30;;;;;;5017004;28;20411;-89
2021/07/12 01:31:26;;;;;;;10.60;4.63;;;17.70;97.30;;;;;;5017143;28;20495;-90
2021/07/12 01:33:58;;;;;;;9.03;4.20;;;17.70;97.30;;;;;;5016544;28;20972;-89
2021/07/12 01:37:02;;;;;;;14.10;5.07;;;17.60;97.30;;;;;;5016640;28;20465;-90
2021/07/12 01:39:32;;;;;;;11.63;5.10;;;17.60;97.30;;;;;;5013027;28;20526;-90
2021/07/12 01:42:06;;;;;;;9.37;4.70;;;17.50;97.30;;;;;;5017344;28;20838;-89
2021/07/12 01:44:52;;;;;;;17.60;5.23;;;17.50;97.30;;;;;;5017176;28;20435;-89
2021/07/12 01:47:40;;;;;;;14.10;5.13;;;17.40;97.30;;;;;;5018165;28;20435;-90
2021/07/12 01:50:41;;;;;;;12.33;5.07;;;17.40;97.30;;;;;;5018264;28;20443;-89
2021/07/12 01:53:18;;;;;;;14.63;5.30;;;17.40;97.30;;;;;;5017267;28;20439;-89
2021/07/12 01:55:46;;;;;;;15.53;5.13;;;17.40;97.30;;;;;;5018074;28;20869;-90
2021/07/12 01:58:27;;;;;;;10.00;4.20;;;17.40;97.30;;;;;;5035687;28;20399;-89
2021/07/12 02:00:53;;;;;;;9.60;4.73;;;17.40;97.30;;;;;;5035388;28;20395;-89
2021/07/12 02:03:21;;;;;;;22.70;4.87;;;17.40;97.30;;;;;;5016807;28;20812;-89
2021/07/12 02:05:50;;;;;;;15.70;4.70;;;17.30;97.30;;;;;;5016354;28;20510;-90
2021/07/12 02:08:25;;;;;;;7.67;4.37;;;17.30;97.30;;;;;;5016127;28;20786;-90
2021/07/12 02:10:54;;;;;;;8.47;4.20;;;17.30;97.30;;;;;;5015754;28;20462;-90
2021/07/12 02:13:19;;;;;;;7.77;4.70;;;17.30;97.30;;;;;;5015971;28;20438;-89
2021/07/12 02:15:47;;;;;;;12.10;4.40;;;17.20;97.30;;;;;;5016670;28;20430;-89
2021/07/12 02:18:14;;;;;;;10.07;4.50;;;17.20;97.30;;;;;;5015737;28;20172;-89
2021/07/12 02:20:43;;;;;;;10.20;4.73;;;17.20;97.30;;;;;;5016163;28;20755;-90
2021/07/12 02:23:12;;;;;;;6.77;4.77;;;17.20;97.30;;;;;;5015500;28;20435;-90
2021/07/12 02:25:42;;;;;;;9.53;4.70;;;17.20;97.30;;;;;;5015382;28;20427;-90
2021/07/12 02:28:15;;;;;;;11.30;4.73;;;17.20;97.30;;;;;;5015702;28;20427;-91
2021/07/12 02:30:45;;;;;;;10.37;4.17;;;17.20;97.30;;;;;;5033783;28;20454;-91
2021/07/12 02:33:14;;;;;;;9.80;4.73;;;17.20;97.30;;;;;;5016670;28;20438;-88
2021/07/12 02:35:41;;;;;;;12.30;5.13;;;17.20;97.30;;;;;;5034150;28;20549;-88
2021/07/12 02:38:10;;;;;;;13.17;5.03;;;17.10;97.30;;;;;;5016664;28;20415;-89
2021/07/12 02:40:37;;;;;;;34.23;5.10;;;17.10;97.30;;;;;;5001074;28;20506;-90
2021/07/12 02:43:07;;;;;;;12.23;4.20;;;17.10;97.30;;;;;;5016184;28;20435;-90
2021/07/12 02:45:36;;;;;;;10.70;4.47;;;17.10;97.30;;;;;;5016198;28;20410;-89
2021/07/12 02:48:01;;;;;;;11.77;5.17;;;17.10;97.30;;;;;;5017833;28;20418;-89
2021/07/12 02:50:28;;;;;;;13.00;4.50;;;17.10;97.30;;;;;;5016950;28;20459;-89
2021/07/12 02:53:11;;;;;;;9.27;4.70;;;17.00;97.30;;;;;;5016906;28;20195;-90
2021/07/12 02:55:37;;;;;;;12.90;5.17;;;17.00;97.30;;;;;;5017398;28;20419;-90
2021/07/12 02:58:03;;;;;;;11.43;5.50;;;17.00;97.30;;;;;;5034830;28;20498;-89
2021/07/12 03:00:33;;;;;;;9.57;4.70;;;17.00;97.30;;;;;;5016938;28;20683;-89
2021/07/12 03:03:04;;;;;;;16.40;5.37;;;17.00;97.30;;;;;;5016976;28;20173;-89
2021/07/12 03:05:32;;;;;;;16.47;5.17;;;17.00;97.30;;;;;;5017389;28;20471;-89
2021/07/12 03:08:19;;;;;;;19.50;5.70;;;17.00;97.30;;;;;;5020299;28;20419;-90
2021/07/12 03:10:49;;;;;;;15.20;5.37;;;17.00;97.30;;;;;;5019205;28;20455;-89
2021/07/12 03:13:22;;;;;;;13.37;5.60;;;17.00;97.30;;;;;;5018989;28;20435;-89
2021/07/12 03:15:55;;;;;;;12.63;5.07;;;17.00;97.30;;;;;;5018736;28;20462;-90
2021/07/12 03:18:28;;;;;;;17.67;5.67;;;17.00;97.30;;;;;;5030246;28;20494;-89
2021/07/12 03:20:57;;;;;;;9.03;4.60;;;17.00;97.30;;;;;;4999180;28;20409;-89
2021/07/12 03:23:23;;;;;;;18.27;5.27;;;16.90;97.30;;;;;;5015294;28;20458;-89
2021/07/12 03:25:57;;;;;;;16.80;5.60;;;16.90;97.30;;;;;;5018468;28;20497;-90
2021/07/12 03:28:25;;;;;;;14.87;5.37;;;16.90;97.30;;;;;;5018334;28;20418;-90
2021/07/12 03:30:54;;;;;;;14.17;4.87;;;16.90;97.30;;;;;;5018690;28;20462;-89
2021/07/12 03:33:22;;;;;;;14.93;5.30;;;16.80;97.30;;;;;;5018685;28;20437;-90
2021/07/12 03:35:56;;;;;;;21.20;4.73;;;16.80;97.30;;;;;;5019439;28;20415;-90
2021/07/12 03:38:24;;;;;;;17.97;4.80;;;16.80;97.30;;;;;;5019448;28;20407;-89
2021/07/12 03:40:51;;;;;;;13.87;4.77;;;16.80;97.30;;;;;;5019354;28;20427;-89
2021/07/12 03:43:18;;;;;;;13.20;4.70;;;16.80;97.30;;;;;;5019389;28;20465;-89
2021/07/12 03:46:08;;;;;;;12.17;5.10;;;16.80;97.30;;;;;;5019442;28;20422;-89
2021/07/12 03:48:45;;;;;;;22.70;4.57;;;16.80;97.30;;;;;;5019068;28;20906;-89
2021/07/12 03:51:17;;;;;;;10.93;5.17;;;16.80;97.30;;;;;;5020013;28;20550;-89
2021/07/12 03:53:45;;;;;;;9.90;5.10;;;16.80;97.30;;;;;;5037401;28;20439;-90
2021/07/12 03:56:10;;;;;;;12.07;5.80;;;16.80;97.30;;;;;;5020234;28;20415;-89
2021/07/12 03:58:36;;;;;;;8.70;5.00;;;16.80;97.30;;;;;;5020597;28;20429;-90
2021/07/12 04:01:04;;;;;;;16.80;5.50;;;16.80;97.30;;;;;;5019836;28;20550;-89
2021/07/12 04:03:33;;;;;;;18.17;6.43;;;16.80;97.30;;;;;;5019530;28;20204;-90
2021/07/12 04:06:01;;;;;;;10.17;4.33;;;16.80;97.30;;;;;;5019564;28;20482;-89
2021/07/12 04:08:27;;;;;;;15.23;5.37;;;16.80;97.30;;;;;;5018605;28;20458;-89
2021/07/12 04:11:49;;;;;;;18.87;5.33;;;16.80;97.30;;;;;;5035177;28;20491;-89
2021/07/12 04:14:47;;;;;;;;;;;;;;;;;;;;;
2021/07/12 04:17:16;;;;;;;17.43;5.60;;;16.80;97.30;;;;;;5034640;28;20415;-86
2021/07/12 04:20:37;;;;;;;15.47;5.67;;;16.80;97.30;;;;;;5000007;28;20428;-89
2021/07/12 04:23:06;;;;;;;13.60;5.40;;;16.80;97.30;;;;;;4990899;28;20456;-89
2021/07/12 04:25:34;;;;;;;14.23;5.10;;;16.90;97.30;;;;;;4997590;28;20427;-88
2021/07/12 04:28:00;;;;;;;16.87;5.73;;;16.90;97.30;;;;;;4997619;28;20482;-89
2021/07/12 04:30:25;;;;;;;11.30;5.80;;;16.90;97.30;;;;;;5008273;28;20497;-88
2021/07/12 04:32:53;;;;;;;13.60;6.40;;;16.90;97.30;;;;;;5039685;28;20203;-89
2021/07/12 04:35:21;;;;;;;18.00;5.90;;;17.00;97.30;;;;;;5021571;28;20204;-89
2021/07/12 04:37:47;;;;;;;13.53;6.23;;;17.00;97.30;;;;;;5018178;28;20426;-89
2021/07/12 04:40:13;;;;;;;19.90;7.47;;;17.00;97.30;;;;;;5017891;28;20415;-89
2021/07/12 04:42:41;;;;;;;15.10;6.20;;;17.00;97.30;;;;;;5018111;28;20184;-90
2021/07/12 04:45:08;;;;;;;14.60;5.60;;;17.10;97.30;;;;;;5017575;28;20435;-89
2021/07/12 04:47:33;;;;;;;11.70;5.80;;;17.10;97.30;;;;;;5017533;28;20423;-89
2021/07/12 04:50:06;;;;;;;15.70;6.77;;;17.20;97.30;;;;;;5017957;28;20447;-89
2021/07/12 04:52:35;;;;;;;16.03;7.03;;;17.20;97.30;;;;;;4999562;28;20252;-89
2021/07/12 04:55:05;;;;;;;25.03;6.43;;;17.20;97.30;;;;;;5018462;28;20451;-89
2021/07/12 04:57:34;;;;;;;15.37;6.67;;;17.30;97.30;;;;;;5018496;28;20408;-90
2021/07/12 05:00:01;;;;;;;22.07;6.40;;;17.30;97.30;;;;;;5036336;28;20411;-89
2021/07/12 05:02:27;;;;;;;14.30;6.70;;;17.30;97.30;;;;;;5023484;28;20427;-88
2021/07/12 05:04:54;;;;;;;15.70;7.53;;;17.40;97.30;;;;;;5009860;23;20504;-80
2021/07/12 05:07:20;;;;;;;20.33;7.33;;;17.40;97.30;;;;;;5004423;28;20221;-80
2021/07/12 05:09:45;;;;;;;24.00;7.17;;;17.50;97.30;;;;;;5009321;28;20475;-82
2021/07/12 05:12:14;;;;;;;19.87;7.80;;;17.60;97.30;;;;;;4995486;28;20198;-81
2021/07/12 05:14:41;;;;;;;15.30;7.10;;;17.60;97.30;;;;;;4983330;28;20209;-80
2021/07/12 05:17:09;;;;;;;20.73;7.20;;;17.70;97.30;;;;;;5013466;28;20463;-80
2021/07/12 05:19:35;;;;;;;13.27;6.87;;;17.70;97.30;;;;;;4969446;28;21090;-81
2021/07/12 05:22:01;;;;;;;24.40;7.53;;;17.70;97.30;;;;;;4971709;28;20449;-82
2021/07/12 05:24:26;;;;;;;22.90;7.43;;;17.70;97.30;;;;;;4979520;28;20247;-82
2021/07/12 05:26:52;;;;;;;17.50;7.00;;;17.70;97.30;;;;;;4978478;28;20554;-82
2021/07/12 05:29:18;;;;;;;17.40;6.70;;;17.70;97.30;;;;;;4978486;28;20181;-81
2021/07/12 05:31:44;;;;;;;17.50;6.70;;;17.70;97.30;;;;;;4971266;28;20206;-82
2021/07/12 05:34:10;;;;;;;15.10;7.53;;;17.70;97.30;;;;;;4964355;28;20422;-84
2021/07/12 05:36:35;;;;;;;26.23;7.27;;;17.70;97.30;;;;;;4962379;28;20426;-81
2021/07/12 05:39:03;;;;;;;14.27;6.17;;;17.80;97.30;;;;;;4963498;28;20183;-82
2021/07/12 05:41:29;;;;;;;15.10;7.87;;;17.80;97.30;;;;;;4974085;28;20232;-82
2021/07/12 05:43:55;;;;;;;16.47;6.80;;;17.90;97.30;;;;;;4987545;28;20421;-81
2021/07/12 05:46:21;;;;;;;22.80;8.10;;;17.90;97.30;;;;;;4983954;28;20178;-83
2021/07/12 05:48:47;;;;;;;22.03;7.90;;;17.90;97.30;;;;;;4982688;28;20475;-80
2021/07/12 05:51:12;;;;;;;18.73;7.70;;;18.00;97.30;;;;;;4979119;28;20481;-80
2021/07/12 05:53:39;;;;;;;16.23;6.77;;;18.00;97.30;;;;;;4997626;28;20663;-82
2021/07/12 05:56:05;;;;;;;14.17;6.50;;;18.00;97.30;;;;;;4969487;28;20186;-82
2021/07/12 05:58:34;;;;;;;13.90;7.23;;;18.00;97.30;;;;;;4962002;28;20469;-81
2021/07/12 06:01:00;;;;;;;9.07;6.97;;;18.00;97.30;;;;;;4964458;28;20775;-83
2021/07/12 06:03:25;;;;;;;16.57;7.30;;;18.10;97.30;;;;;;4963234;28;20457;-82
2021/07/12 06:05:51;;;;;;;11.03;6.43;;;18.10;97.30;;;;;;4978731;28;20181;-83
2021/07/12 06:08:16;;;;;;;15.23;7.63;;;18.20;97.30;;;;;;4968722;28;20204;-83
2021/07/12 06:10:42;;;;;;;12.57;7.17;;;18.30;97.30;;;;;;4964557;28;20214;-83
2021/07/12 06:13:08;;;;;;;14.87;7.40;;;18.20;97.30;;;;;;4963043;28;20242;-84
2021/07/12 06:15:34;;;;;;;13.30;7.70;;;18.30;97.30;;;;;;4963793;28;20174;-81
2021/07/12 06:17:59;;;;;;;17.93;8.57;;;18.30;97.30;;;;;;4982885;28;20176;-82
2021/07/12 06:20:25;;;;;;;18.63;7.50;;;18.40;97.30;;;;;;5001268;28;20926;-83
2021/07/12 06:22:54;;;;;;;12.70;7.53;;;18.40;97.30;;;;;;5000819;28;20188;-82
2021/07/12 06:25:23;;;;;;;17.63;7.50;;;18.50;97.30;;;;;;5001623;28;20204;-82
2021/07/12 06:27:53;;;;;;;15.40;8.00;;;18.50;97.30;;;;;;4981484;28;20448;-83
2021/07/12 06:30:20;;;;;;;21.03;8.17;;;18.60;97.30;;;;;;4982501;28;20810;-83
2021/07/12 06:32:45;;;;;;;16.47;8.03;;;18.50;97.30;;;;;;4981778;28;21019;-82
2021/07/12 06:35:14;;;;;;;12.60;8.03;;;18.60;97.30;;;;;;4980236;28;20463;-82
2021/07/12 06:37:44;;;;;;;12.90;8.27;;;18.60;97.30;;;;;;4982048;28;20174;-82
2021/07/12 06:40:14;;;;;;;14.70;7.50;;;18.70;97.30;;;;;;4980408;28;20488;-82
2021/07/12 06:42:44;;;;;;;17.23;11.10;;;18.80;97.30;;;;;;4968464;28;20825;-83
2021/07/12 06:45:10;;;;;;;14.73;11.07;;;18.80;97.30;;;;;;4967243;28;20421;-83
2021/07/12 06:47:35;;;;;;;12.70;7.73;;;18.90;97.30;;;;;;4966595;28;20418;-82
2021/07/12 06:50:01;;;;;;;15.00;9.07;;;18.90;97.30;;;;;;4978094;28;20599;-82
2021/07/12 06:52:26;;;;;;;13.50;6.77;;;19.00;97.30;;;;;;4987246;28;20260;-83
2021/07/12 06:54:52;;;;;;;16.30;7.20;;;19.10;97.30;;;;;;4983532;28;20176;-82
2021/07/12 06:57:18;;;;;;;15.40;6.97;;;19.10;97.30;;;;;;4998692;28;20194;-83
2021/07/12 06:59:43;;;;;;;10.53;6.13;;;19.20;97.30;;;;;;4989075;28;20178;-83
2021/07/12 07:02:13;;;;;;;13.30;6.73;;;19.20;97.30;;;;;;4990352;28;20198;-83
2021/07/12 07:04:41;;;;;;;13.97;7.73;;;19.30;97.30;;;;;;5007706;28;20289;-84
2021/07/12 07:07:07;;;;;;;11.77;6.10;;;19.30;97.30;;;;;;4965030;28;20430;-83
2021/07/12 07:09:33;;;;;;;11.93;5.80;;;19.40;97.30;;;;;;4966943;28;20481;-82
2021/07/12 07:11:59;;;;;;;7.77;6.47;;;19.40;97.30;;;;;;4964613;28;20464;-83
2021/07/12 07:14:24;;;;;;;7.17;6.23;;;19.50;97.30;;;;;;4960824;28;20445;-82
2021/07/12 07:16:50;;;;;;;13.53;7.10;;;19.50;97.30;;;;;;4979236;28;20609;-83
2021/07/12 07:19:16;;;;;;;11.70;6.47;;;19.50;97.30;;;;;;4993802;28;20181;-83
2021/07/12 07:21:41;;;;;;;8.30;5.63;;;19.60;97.30;;;;;;4983896;28;20213;-83
2021/07/12 07:24:07;;;;;;;10.53;5.83;;;19.60;97.30;;;;;;4959847;28;20650;-83
2021/07/12 07:26:32;;;;;;;9.70;6.70;;;19.60;97.30;;;;;;4965774;28;20179;-84
2021/07/12 07:28:58;;;;;;;7.70;6.17;;;19.70;97.30;;;;;;4962408;28;20194;-83
2021/07/12 07:31:24;;;;;;;18.30;5.17;;;19.70;97.30;;;;;;4981178;28;20270;-82
2021/07/12 07:33:50;;;;;;;7.83;5.00;;;19.80;97.30;;;;;;4963095;28;20237;-82
2021/07/12 07:36:16;;;;;;;7.20;5.23;;;19.90;97.30;;;;;;4963576;28;20449;-83
2021/07/12 07:38:43;;;;;;;9.97;6.00;;;20.00;97.30;;;;;;4981798;28;20178;-83
2021/07/12 07:41:09;;;;;;;10.60;5.20;;;20.10;97.30;;;;;;4964835;28;20465;-83
2021/07/12 07:43:34;;;;;;;5.80;4.90;;;20.20;97.30;;;;;;4984155;28;20932;-83
2021/07/12 07:46:00;;;;;;;8.30;5.97;;;20.30;97.30;;;;;;4983582;28;20197;-83
2021/07/12 07:48:26;;;;;;;8.40;5.77;;;20.40;97.30;;;;;;4985670;28;20178;-83
2021/07/12 07:50:51;;;;;;;11.13;5.57;;;20.50;97.30;;;;;;4983576;28;20217;-82
2021/07/12 07:53:17;;;;;;;11.33;5.67;;;20.50;97.30;;;;;;4966344;28;20182;-83
2021/07/12 07:55:43;;;;;;;9.43;5.10;;;20.50;97.30;;;;;;4964296;28;20218;-82
2021/07/12 07:58:08;;;;;;;9.10;5.23;;;20.50;97.30;;;;;;4982366;28;20634;-83
2021/07/12 08:00:34;;;;;;;6.40;4.87;;;20.50;97.30;;;;;;4965856;28;20528;-83
2021/07/12 08:03:01;;;;;;;15.73;5.43;;;20.60;97.30;;;;;;4984152;28;20193;-82
2021/07/12 08:05:26;;;;;;;6.17;4.87;;;20.60;97.30;;;;;;4983446;28;20230;-83
2021/07/12 08:07:52;;;;;;;5.83;4.03;;;20.70;97.30;;;;;;4984499;28;20786;-82
2021/07/12 08:10:19;;;;;;;6.73;4.60;;;20.70;97.30;;;;;;4984588;28;20220;-83
2021/07/12 08:12:46;;;;;;;8.23;4.73;;;20.80;97.30;;;;;;4983510;28;20174;-83
2021/07/12 08:15:13;;;;;;;6.47;4.60;;;20.90;97.30;;;;;;4964658;28;20442;-82
2021/07/12 08:17:40;;;;;;;7.03;4.83;;;21.10;97.30;;;;;;4965820;28;20421;-83
2021/07/12 08:20:10;;;;;;;5.97;4.50;;;21.20;97.30;;;;;;5000576;28;20412;-82
2021/07/12 08:22:36;;;;;;;6.40;4.27;;;21.30;97.30;;;;;;4964196;28;20446;-83
2021/07/12 08:25:04;;;;;;;7.47;4.47;;;21.30;97.30;;;;;;4964280;28;20925;-82
2021/07/12 08:27:30;;;;;;;5.40;4.03;;;21.40;97.30;;;;;;4965525;28;20170;-82
2021/07/12 08:29:56;;;;;;;7.33;4.23;;;21.50;97.30;;;;;;4966223;28;20457;-82
2021/07/12 08:32:22;;;;;;;6.50;4.50;;;21.50;97.30;;;;;;4981166;28;20708;-82
2021/07/12 08:34:47;;;;;;;5.07;3.93;;;21.50;97.30;;;;;;4983218;28;20178;-82
2021/07/12 08:37:13;;;;;;;5.60;4.20;;;21.50;97.30;;;;;;4983609;28;20209;-82
2021/07/12 08:39:39;;;;;;;6.10;4.17;;;21.50;97.30;;;;;;4984163;28;20192;-83
2021/07/12 08:42:05;;;;;;;4.57;4.03;;;21.50;97.30;;;;;;4974462;28;20453;-83
2021/07/12 08:44:31;;;;;;;4.80;3.67;;;21.60;97.30;;;;;;4964520;28;20237;-82
2021/07/12 08:46:57;;;;;;;7.17;4.30;;;21.60;97.30;;;;;;4965656;28;21023;-83
2021/07/12 08:49:23;;;;;;;4.80;3.47;;;21.70;97.30;;;;;;4982895;28;20181;-82
2021/07/12 08:51:49;;;;;;;6.07;4.30;;;21.80;97.30;;;;;;4970313;28;20468;-83
2021/07/12 08:54:16;;;;;;;4.53;4.17;;;21.90;97.30;;;;;;4983150;28;20252;-83
2021/07/12 08:56:41;;;;;;;7.00;3.83;;;22.00;97.30;;;;;;4983778;28;20460;-82
2021/07/12 08:59:29;;;;;;;7.40;4.53;;;22.00;97.30;;;;;;4984711;28;20424;-83
2021/07/12 09:02:14;;;;;;;6.90;4.03;;;22.00;97.30;;;;;;4982159;28;20680;-81
2021/07/12 09:04:47;;;;;;;4.80;4.03;;;22.00;97.30;;;;;;4984337;28;20496;-82
2021/07/12 09:07:29;;;;;;;10.80;4.30;;;22.10;97.30;;;;;;4968763;28;20458;-80
2021/07/12 09:10:10;;;;;;;6.77;3.90;;;22.20;97.30;;;;;;4964308;28;20886;-80
2021/07/12 09:12:47;;;;;;;4.03;3.80;;;22.30;97.30;;;;;;4961151;28;20454;-80
2021/07/12 09:15:23;;;;;;;3.97;3.63;;;22.50;97.30;;;;;;4962313;28;20530;-81
2021/07/12 09:17:51;;;;;;;3.90;3.60;;;22.60;97.30;;;;;;4987978;28;20421;-81
2021/07/12 09:20:25;;;;;;;7.23;4.23;;;22.80;97.30;;;;;;4985727;28;20448;-81
2021/07/12 09:22:50;;;;;;;6.73;3.40;;;22.80;97.30;;;;;;4980528;28;20568;-81
2021/07/12 09:25:16;;;;;;;5.93;3.73;;;22.80;97.30;;;;;;4972111;28;20924;-81
2021/07/12 09:27:42;;;;;;;3.57;3.37;;;22.80;97.30;;;;;;4979970;28;20194;-81
2021/07/12 09:30:11;;;;;;;4.20;3.97;;;22.80;97.30;;;;;;4963490;28;20264;-81
2021/07/12 09:32:39;;;;;;;7.17;4.57;;;22.80;97.30;;;;;;4963637;28;20845;-81
2021/07/12 09:35:11;;;;;;;5.80;3.47;;;22.80;97.30;;;;;;4965766;28;20473;-81
2021/07/12 09:37:39;;;;;;;5.73;3.90;;;22.80;97.30;;;;;;4972594;28;20429;-83
2021/07/12 09:40:12;;;;;;;4.67;3.60;;;22.80;97.30;;;;;;4978404;28;20461;-82
2021/07/12 09:42:43;;;;;;;5.10;3.77;;;22.80;97.30;;;;;;4973100;28;20457;-82
2021/07/12 09:45:11;;;;;;;4.53;3.53;;;22.80;97.30;;;;;;4962650;28;20430;-81
2021/07/12 09:47:40;;;;;;;3.90;3.30;;;22.80;97.30;;;;;;4978186;28;20436;-82
2021/07/12 09:50:10;;;;;;;5.20;4.10;;;22.80;97.30;;;;;;4985203;28;20467;-82
2021/07/12 09:52:43;;;;;;;5.33;3.70;;;22.80;97.30;;;;;;4985587;28;20527;-81
2021/07/12 09:55:22;;;;;;;4.97;3.10;;;22.90;97.30;;;;;;4984256;28;20995;-80
2021/07/12 09:58:07;;;;;;;4.30;3.23;;;22.90;97.30;;;;;;4984020;28;20456;-81
2021/07/12 10:00:33;;;;;;;3.87;3.10;;;22.90;97.30;;;;;;4985313;28;20417;-81
2021/07/12 10:02:59;;;;;;;4.10;3.20;;;22.90;97.30;;;;;;4985403;28;20424;-81
2021/07/12 10:05:25;;;;;;;6.17;3.60;;;22.90;97.30;;;;;;4990106;28;20468;-81
2021/07/12 10:07:51;;;;;;;6.13;3.57;;;22.80;97.30;;;;;;4987882;28;20561;-80
2021/07/12 10:10:16;;;;;;;6.57;3.37;;;22.70;97.30;;;;;;4989094;28;20189;-81
2021/07/12 10:12:44;;;;;;;3.60;3.40;;;22.80;97.30;;;;;;4987331;28;20420;-82
2021/07/12 10:15:12;;;;;;;5.13;3.93;;;22.90;97.30;;;;;;4992299;28;20169;-82
2021/07/12 10:17:40;;;;;;;6.67;3.43;;;23.20;97.30;;;;;;4997041;28;20554;-81
2021/07/12 10:20:07;;;;;;;4.80;3.60;;;23.40;97.30;;;;;;4995230;28;20460;-81
2021/07/12 10:22:35;;;;;;;5.70;3.40;;;23.60;97.30;;;;;;4993423;28;20535;-81
2021/07/12 10:25:13;;;;;;;3.50;3.00;;;23.70;97.30;;;;;;4987342;28;20456;-81
2021/07/12 10:28:06;;;;;;;7.03;3.60;;;23.70;97.30;;;;;;5001842;28;20514;-81
2021/07/12 10:30:37;;;;;;;3.70;3.00;;;23.70;97.30;;;;;;4989458;28;20455;-80
2021/07/12 10:33:10;;;;;;;4.80;3.67;;;23.70;97.30;;;;;;5012088;28;20900;-81
2021/07/12 10:35:48;;;;;;;4.80;2.90;;;23.90;97.30;;;;;;4969719;28;20415;-81
2021/07/12 10:38:24;;;;;;;3.30;3.10;;;24.00;97.30;;;;;;4979311;28;20412;-81
2021/07/12 10:40:58;;;;;;;6.43;3.27;;;24.10;97.30;;;;;;4988861;28;20480;-80
2021/07/12 10:43:42;;;;;;;5.73;2.93;;;24.30;97.30;;;;;;4987695;28;20455;-82
2021/07/12 10:46:08;;;;;;;3.47;3.27;;;24.50;97.30;;;;;;4987108;28;20631;-83
2021/07/12 10:48:40;;;;;;;6.63;3.23;;;24.60;97.30;;;;;;4987648;28;20437;-82
2021/07/12 10:51:36;;;;;;;4.13;2.73;;;24.80;97.30;;;;;;4986106;28;20487;-83
2021/07/12 10:54:16;;;;;;;2.70;2.50;;;24.80;96.20;;;;;;4986016;28;20428;-82
2021/07/12 10:56:54;;;;;;;4.13;2.67;;;24.90;93.80;;;;;;4985376;28;20423;-82
2021/07/12 10:59:27;;;;;;;4.47;3.10;;;24.90;96.10;;;;;;4986204;28;20450;-83
2021/07/12 11:01:55;;;;;;;2.90;2.73;;;25.10;97.30;;;;;;4986491;28;20428;-82
2021/07/12 11:04:47;;;;;;;3.50;2.60;;;25.10;94.70;;;;;;4984685;28;20496;-82
2021/07/12 11:07:17;;;;;;;3.30;2.53;;;25.20;95.00;;;;;;4985036;28;20779;-82
2021/07/12 11:10:00;;;;;;;3.80;2.57;;;25.10;94.80;;;;;;4965963;28;20544;-82
2021/07/12 11:12:38;;;;;;;5.07;2.97;;;25.00;94.10;;;;;;4970609;28;20463;-82
2021/07/12 11:15:24;;;;;;;3.03;2.83;;;25.00;95.20;;;;;;4984488;28;21115;-82
2021/07/12 11:18:05;;;;;;;3.50;2.97;;;24.90;95.10;;;;;;4986818;28;20423;-83
2021/07/12 11:20:47;;;;;;;3.10;2.90;;;24.80;96.10;;;;;;5016369;28;20471;-82
2021/07/12 11:23:44;;;;;;;2.67;2.50;;;24.80;95.90;;;;;;4986314;28;20413;-83
2021/07/12 11:26:23;;;;;;;2.97;2.77;;;24.80;96.00;;;;;;4982516;28;20413;-82
2021/07/12 11:28:56;;;;;;;4.03;2.80;;;24.80;94.30;;;;;;4982241;28;20524;-83
2021/07/12 11:31:55;;;;;;;7.50;2.70;;;24.80;94.50;;;;;;4983149;28;20472;-82
2021/07/12 11:34:31;;;;;;;3.10;2.90;;;24.70;95.50;;;;;;4966750;28;20417;-83
2021/07/12 11:37:12;;;;;;;2.73;2.60;;;24.70;95.80;;;;;;4961503;28;20491;-83
2021/07/12 11:40:05;;;;;;;5.83;3.07;;;24.60;94.20;;;;;;4962649;28;20424;-83
2021/07/12 11:42:37;;;;;;;2.83;2.50;;;24.60;94.60;;;;;;4973463;28;20512;-83
2021/07/12 11:45:07;;;;;;;7.80;3.10;;;24.50;94.00;;;;;;4981848;28;20496;-82
2021/07/12 11:47:39;;;;;;;3.73;3.00;;;24.50;94.60;;;;;;4974608;28;20422;-82
2021/07/12 11:50:06;;;;;;;6.40;2.83;;;24.50;96.30;;;;;;4962982;28;20505;-83
2021/07/12 11:52:32;;;;;;;4.20;2.60;;;24.50;95.70;;;;;;4980564;28;20532;-83
2021/07/12 11:55:01;;;;;;;5.47;3.00;;;24.60;96.20;;;;;;4980481;28;20857;-82
2021/07/12 11:57:27;;;;;;;6.23;3.50;;;24.60;97.20;;;;;;4996255;28;20417;-83
2021/07/12 11:59:52;;;;;;;4.53;3.10;;;24.70;97.00;;;;;;4979357;28;20425;-83
2021/07/12 12:02:18;;;;;;;3.47;2.60;;;24.70;97.30;;;;;;4990620;28;20194;-83
2021/07/12 12:04:48;;;;;;;2.53;2.33;;;24.80;96.50;;;;;;4962445;28;20290;-82
2021/07/12 12:07:27;;;;;;;5.63;2.80;;;24.80;94.10;;;;;;4963741;28;20187;-82
2021/07/12 12:09:54;;;;;;;4.90;3.00;;;24.80;94.30;;;;;;4979199;28;20410;-82
2021/07/12 12:12:27;;;;;;;3.33;3.20;;;24.90;97.30;;;;;;4946320;28;20437;-82
2021/07/12 12:14:58;;;;;;;2.70;2.50;;;25.00;97.30;;;;;;4964267;28;20417;-82
2021/07/12 12:17:27;;;;;;;3.70;2.40;;;25.00;96.10;;;;;;4978057;28;20431;-82
2021/07/12 12:20:07;;;;;;;3.00;2.80;;;25.10;94.70;;;;;;4999984;28;20497;-82
2021/07/12 12:22:34;;;;;;;4.57;2.63;;;25.20;93.50;;;;;;5000203;28;20591;-82
2021/07/12 12:25:05;;;;;;;3.60;3.40;;;25.30;95.00;;;;;;5001683;28;20501;-82
2021/07/12 12:27:31;;;;;;;2.87;2.67;;;25.30;94.60;;;;;;5000986;28;21004;-82
2021/07/12 12:29:57;;;;;;;2.80;2.60;;;25.50;95.50;;;;;;4962152;28;20437;-83
2021/07/12 12:32:34;;;;;;;3.13;2.93;;;25.70;96.00;;;;;;4960800;28;20725;-82
2021/07/12 12:35:01;;;;;;;5.83;2.70;;;25.90;95.60;;;;;;4961103;28;20421;-83
2021/07/12 12:37:41;;;;;;;4.10;2.37;;;26.10;94.70;;;;;;4959518;28;20799;-83
2021/07/12 12:40:16;;;;;;;2.70;2.50;;;26.00;92.00;;;;;;4959890;28;20432;-82
2021/07/12 12:42:42;;;;;;;3.93;2.83;;;25.80;92.30;;;;;;4964204;28;20429;-83
2021/07/12 12:45:08;;;;;;;2.80;2.60;;;25.80;93.70;;;;;;4980703;28;20429;-83
2021/07/12 12:47:34;;;;;;;2.40;2.27;;;25.80;92.80;;;;;;4978488;28;20463;-83
2021/07/12 12:50:14;;;;;;;3.13;3.03;;;25.80;92.40;;;;;;4977608;28;20182;-83
2021/07/12 12:52:40;;;;;;;3.13;2.93;;;26.00;95.70;;;;;;4978583;28;20177;-82
2021/07/12 12:55:09;;;;;;;5.30;2.90;;;26.00;92.60;;;;;;4981332;28;20843;-83
2021/07/12 12:57:36;;;;;;;5.20;2.70;;;26.20;89.90;;;;;;4981631;28;20174;-83
2021/07/12 13:00:09;;;;;;;4.60;2.70;;;26.40;89.90;;;;;;4979766;28;20447;-82
2021/07/12 13:02:40;;;;;;;2.57;2.40;;;26.60;92.10;;;;;;4977869;28;20948;-84
2021/07/12 13:05:17;;;;;;;2.30;2.10;;;26.80;91.60;;;;;;4976844;28;20857;-83
2021/07/12 13:07:50;;;;;;;3.93;2.60;;;26.90;88.50;;;;;;4957820;28;20430;-83
2021/07/12 13:10:27;;;;;;;6.83;2.70;;;27.10;89.10;;;;;;4957155;28;20532;-83